Time;durP1;ratioP1;P1;durP2;ratioP2;P2;SDS_P1;SDS_P2;PMS_P1;PMS_P2;Temp;Humidity;BMP_temperature;BMP_pressure;BME280_temperature;BME280_humidity;BME280_pressure;Samples;Min_cycle;Max_cycle;Signal;HPM_P1;HPM_P2
2022/05/06 00:01:51;;;;;;;24.63;10.03;;;;;;;8.27;46.20;101459.50;125414;1099;104162;-79
2022/05/06 00:04:24;;;;;;;23.65;10.13;;;;;;;8.26;46.82;101454.19;125735;1098;103340;-79
2022/05/06 00:06:57;;;;;;;24.73;10.20;;;;;;;8.23;46.84;101454.00;125725;1099;102069;-80
2022/05/06 00:09:30;;;;;;;26.40;10.83;;;;;;;8.21;46.91;101464.36;125687;1097;104162;-79
2022/05/06 00:12:04;;;;;;;27.07;10.40;;;;;;;8.17;47.25;101462.36;125691;1098;104232;-79
2022/05/06 00:14:36;;;;;;;27.05;10.20;;;;;;;8.18;47.29;101456.33;125726;1099;102752;-79
2022/05/06 00:17:09;;;;;;;26.17;10.50;;;;;;;8.13;47.55;101456.85;125647;1099;104204;-79
2022/05/06 00:19:43;;;;;;;25.23;9.73;;;;;;;8.09;47.11;101459.28;125630;1099;104311;-79
2022/05/06 00:22:16;;;;;;;25.40;10.20;;;;;;;8.06;47.31;101466.04;125676;1098;102830;-79
2022/05/06 00:24:48;;;;;;;23.23;10.30;;;;;;;8.02;47.39;101458.81;125705;1099;104108;-80
2022/05/06 00:27:21;;;;;;;28.90;9.80;;;;;;;8.01;47.34;101459.61;125682;1099;104267;-79
2022/05/06 00:30:08;;;;;;;25.97;10.23;;;;;;;8.02;47.25;101461.42;125698;1099;102915;-79
2022/05/06 00:32:41;;;;;;;23.83;9.70;;;;;;;8.10;47.27;101465.40;125700;1099;104222;-78
2022/05/06 00:35:14;;;;;;;24.07;10.30;;;;;;;8.16;47.18;101463.16;125694;1099;104345;-79
2022/05/06 00:37:47;;;;;;;27.83;10.57;;;;;;;8.21;47.31;101466.98;125664;1099;104165;-78
2022/05/06 00:40:20;;;;;;;28.93;10.47;;;;;;;8.25;47.90;101463.72;125665;1099;102478;-78
2022/05/06 00:42:56;;;;;;;26.93;9.83;;;;;;;8.28;47.37;101470.86;125672;1099;104329;-79
2022/05/06 00:45:41;;;;;;;26.10;9.80;;;;;;;8.23;47.10;101473.19;125774;1099;104173;-79
2022/05/06 00:48:14;;;;;;;23.47;9.50;;;;;;;8.21;47.45;101473.90;125649;1099;104249;-80
2022/05/06 00:50:48;;;;;;;24.47;10.47;;;;;;;8.14;48.37;101471.73;124816;1099;104159;-79
2022/05/06 00:53:21;;;;;;;21.90;9.35;;;;;;;8.01;48.33;101470.06;125724;1099;104354;-79
2022/05/06 00:55:55;;;;;;;23.03;9.67;;;;;;;7.91;47.87;101471.22;125690;1099;104232;-79
2022/05/06 00:58:32;;;;;;;27.60;10.73;;;;;;;7.82;48.92;101476.80;125723;1099;102230;-79
2022/05/06 01:01:05;;;;;;;27.33;10.90;;;;;;;7.74;48.62;101493.67;125760;1099;104233;-79
2022/05/06 01:03:40;;;;;;;25.17;10.40;;;;;;;7.67;48.70;101479.33;125670;1099;101882;-79
2022/05/06 01:06:14;;;;;;;23.80;10.87;;;;;;;7.63;48.91;101479.05;125666;1099;104239;-79
2022/05/06 01:08:50;;;;;;;29.23;10.27;;;;;;;7.58;48.99;101477.86;125661;1099;104255;-78
2022/05/06 01:11:24;;;;;;;24.90;10.10;;;;;;;7.53;49.75;101482.79;125701;1099;104313;-79
2022/05/06 01:13:57;;;;;;;24.95;10.10;;;;;;;7.47;49.62;101485.01;125808;1099;104162;-79
2022/05/06 01:16:37;;;;;;;24.97;10.33;;;;;;;7.39;49.07;101479.30;125447;1099;104193;-79
2022/05/06 01:19:14;;;;;;;26.00;10.33;;;;;;;7.35;49.86;101480.81;125031;1102;104182;-79
2022/05/06 01:21:53;;;;;;;25.17;10.30;;;;;;;7.30;49.36;101478.70;125036;1102;104349;-79
2022/05/06 01:24:26;;;;;;;30.50;11.50;;;;;;;7.27;49.63;101475.89;124976;1102;102922;-79
2022/05/06 01:27:03;;;;;;;26.13;10.87;;;;;;;7.25;50.28;101475.79;124997;1102;104166;-79
2022/05/06 01:29:39;;;;;;;26.97;11.27;;;;;;;7.22;50.12;101477.31;125089;1102;111599;-79
2022/05/06 01:32:12;;;;;;;27.53;10.90;;;;;;;7.18;50.78;101468.36;125085;1102;101821;-79
2022/05/06 01:34:46;;;;;;;27.30;10.60;;;;;;;7.15;50.63;101471.69;125004;1102;104268;-79
2022/05/06 01:37:27;;;;;;;29.50;11.03;;;;;;;7.12;50.64;101470.56;124284;1102;103048;-80
2022/05/06 01:40:04;;;;;;;29.90;12.15;;;;;;;7.08;51.00;101472.08;125123;1102;104672;-80
2022/05/06 01:42:41;;;;;;;23.80;11.60;;;;;;;7.06;50.92;101476.31;125036;1102;104313;-82
2022/05/06 01:45:16;;;;;;;26.27;12.07;;;;;;;7.05;51.15;101479.71;125046;1102;104210;-80
2022/05/06 01:47:55;;;;;;;35.67;13.40;;;;;;;7.01;50.97;101475.08;125050;1102;103691;-81
2022/05/06 01:50:32;;;;;;;31.53;12.37;;;;;;;6.98;51.52;101477.48;125614;1099;104235;-80
2022/05/06 01:53:05;;;;;;;29.40;13.67;;;;;;;6.95;51.35;101475.60;125679;1100;102519;-79
2022/05/06 01:55:38;;;;;;;29.50;12.73;;;;;;;6.91;51.31;101480.52;125155;1099;104319;-79
2022/05/06 01:58:13;;;;;;;29.27;12.23;;;;;;;6.86;51.28;101476.67;125563;1099;104191;-80
2022/05/06 02:00:51;;;;;;;26.80;12.50;;;;;;;6.83;51.27;101467.86;125615;1098;104351;-79
2022/05/06 02:06:18;;;;;;;27.00;11.50;;;;;;;6.80;51.58;101469.37;125512;1099;104281;-79
2022/05/06 02:08:54;;;;;;;26.60;11.33;;;;;;;6.76;51.77;101476.09;125252;1099;104201;-79
2022/05/06 02:11:33;;;;;;;29.63;11.20;;;;;;;6.74;51.91;101472.45;125760;1099;105242;-79
2022/05/06 02:14:05;;;;;;;27.95;10.68;;;;;;;6.71;51.94;101472.25;125699;1099;104284;-78
2022/05/06 02:16:56;;;;;;;27.53;10.70;;;;;;;6.68;52.22;101478.98;125692;1099;104169;-79
2022/05/06 02:20:04;;;;;;;27.33;10.70;;;;;;;6.62;52.45;101475.17;125034;1102;104384;-78
2022/05/06 02:22:45;;;;;;;24.07;9.97;;;;;;;6.60;52.37;101481.08;125668;1099;104197;-79
2022/05/06 02:25:36;;;;;;;24.85;10.20;;;;;;;6.53;53.39;101479.77;125805;1099;104224;-80
2022/05/06 02:28:15;;;;;;;24.67;10.63;;;;;;;6.48;53.19;101486.35;125725;1099;104160;-79
2022/05/06 02:33:46;;;;;;;26.33;11.07;;;;;;;6.39;53.13;101491.86;125738;1098;104256;-80
2022/05/06 02:36:26;;;;;;;27.57;10.20;;;;;;;6.41;53.30;101491.97;125674;1099;104229;-78
2022/05/06 02:38:58;;;;;;;26.25;10.70;;;;;;;6.40;52.95;101487.54;124922;1098;104153;-79
2022/05/06 02:41:31;;;;;;;25.10;10.33;;;;;;;6.39;54.00;101490.94;125740;1099;104288;-79
2022/05/06 02:44:05;;;;;;;25.62;10.03;;;;;;;6.33;53.18;101491.44;125151;1099;104174;-79
2022/05/06 02:46:43;;;;;;;27.00;10.27;;;;;;;6.28;53.97;101495.45;125721;1099;102806;-79
2022/05/06 02:49:15;;;;;;;24.37;9.70;;;;;;;6.25;53.87;101495.23;125755;1099;104291;-80
2022/05/06 02:51:49;;;;;;;25.70;10.10;;;;;;;6.21;54.22;101503.63;125736;1099;101813;-79
2022/05/06 02:54:24;;;;;;;26.27;10.47;;;;;;;6.19;54.31;101506.12;125725;1099;104217;-79
2022/05/06 02:57:00;;;;;;;20.83;9.47;;;;;;;6.13;54.21;101504.81;125065;1099;104338;-79
2022/05/06 02:59:33;;;;;;;22.52;9.45;;;;;;;6.10;55.60;101514.20;125034;1099;104334;-79
2022/05/06 03:02:08;;;;;;;24.43;9.17;;;;;;;6.06;54.80;101508.66;125059;1099;102310;-79
2022/05/06 03:04:42;;;;;;;25.67;10.73;;;;;;;6.04;55.29;101508.55;125081;1099;104495;-79
2022/05/06 03:07:16;;;;;;;26.63;10.23;;;;;;;6.03;56.12;101511.98;125070;1102;104351;-79
2022/05/06 03:09:56;;;;;;;23.50;10.63;;;;;;;6.03;55.33;101511.98;125025;1102;104198;-79
2022/05/06 03:12:31;;;;;;;25.82;10.68;;;;;;;6.03;54.69;101513.66;125115;1102;104236;-80
2022/05/06 03:15:12;;;;;;;;;;;;;;;6.01;55.86;101518.77;125170;1101;104194;-79
2022/05/06 03:17:56;;;;;;;24.50;9.80;;;;;;;5.99;55.14;101515.16;125121;1102;104166;-79
2022/05/06 03:20:28;;;;;;;22.93;10.20;;;;;;;5.99;56.24;101525.58;125085;1102;102980;-79
2022/05/06 03:23:28;;;;;;;25.03;10.70;;;;;;;5.99;56.09;101524.69;124471;1102;102462;-78
2022/05/06 03:26:08;;;;;;;27.37;10.43;;;;;;;5.98;56.10;101523.75;125231;1101;102116;-79
2022/05/06 03:28:44;;;;;;;27.33;11.27;;;;;;;6.00;55.61;101521.26;124917;1099;104245;-79
2022/05/06 03:31:18;;;;;;;;;;;;;;;6.03;57.11;101525.01;124317;1101;104310;-79
2022/05/06 03:34:06;;;;;;;25.27;9.83;;;;;;;6.09;55.68;101527.12;124357;1102;104163;-79
2022/05/06 03:36:44;;;;;;;26.20;10.30;;;;;;;6.15;55.79;101524.05;124300;1099;104319;-79
2022/05/06 03:39:17;;;;;;;26.77;10.33;;;;;;;6.23;55.54;101531.62;124538;1099;104233;-80
2022/05/06 03:42:00;;;;;;;27.53;11.17;;;;;;;6.32;56.31;101535.66;125634;1099;104397;-80
2022/05/06 03:44:34;;;;;;;27.33;12.03;;;;;;;6.35;55.69;101541.97;125619;1099;104331;-78
2022/05/06 03:47:09;;;;;;;29.00;12.40;;;;;;;6.39;56.04;101544.01;125181;1099;104358;-79
2022/05/06 03:49:42;;;;;;;28.73;12.20;;;;;;;6.43;55.95;101543.40;124490;1102;104227;-78
2022/05/06 03:52:16;;;;;;;29.65;12.68;;;;;;;6.48;56.03;101543.72;124419;1099;104692;-78
2022/05/06 03:54:51;;;;;;;33.53;13.10;;;;;;;6.51;56.04;101537.81;124435;1103;102531;-78
2022/05/06 03:57:24;;;;;;;29.80;13.30;;;;;;;6.55;55.59;101539.84;124487;1102;102813;-78
2022/05/06 03:59:58;;;;;;;31.87;12.93;;;;;;;6.63;55.78;101544.77;124553;1099;102041;-79
2022/05/06 04:02:30;;;;;;;34.20;14.43;;;;;;;6.70;55.90;101543.51;124872;1099;104392;-78
2022/05/06 04:05:02;;;;;;;29.80;14.53;;;;;;;6.76;55.75;101542.99;124500;1099;104217;-79
2022/05/06 04:07:35;;;;;;;33.03;14.03;;;;;;;6.82;56.17;101551.23;124558;1099;104430;-80
2022/05/06 04:10:10;;;;;;;33.78;14.05;;;;;;;6.88;55.66;101546.44;124432;1099;102359;-78
2022/05/06 04:12:41;;;;;;;32.30;13.60;;;;;;;6.95;55.78;101548.67;124447;1099;102980;-78
2022/05/06 04:15:14;;;;;;;35.30;14.20;;;;;;;7.01;55.92;101541.25;124261;1101;104176;-78
2022/05/06 04:17:47;;;;;;;33.30;13.30;;;;;;;7.11;55.64;101544.47;124789;1099;102298;-78
2022/05/06 04:26:00;;;;;;;34.67;13.73;;;;;;;7.42;55.93;101534.33;124702;1099;104262;-76
2022/05/06 04:28:33;;;;;;;31.83;13.70;;;;;;;7.56;55.68;101543.06;124742;1099;104711;-76
2022/05/06 04:31:07;;;;;;;32.57;14.00;;;;;;;7.66;55.65;101536.70;124702;1099;104197;-76
2022/05/06 04:33:42;;;;;;;27.77;12.57;;;;;;;7.79;55.85;101541.92;124774;1099;110785;-76
2022/05/06 04:36:23;;;;;;;31.10;13.67;;;;;;;7.89;55.92;101539.06;124770;1098;104739;-76
2022/05/06 04:38:58;;;;;;;31.97;13.27;;;;;;;8.01;55.26;101545.86;124993;1099;104268;-78
2022/05/06 04:41:30;;;;;;;30.65;13.15;;;;;;;8.13;55.48;101549.24;124706;1099;104149;-76
2022/05/06 04:44:02;;;;;;;32.17;12.90;;;;;;;8.22;55.60;101547.20;124722;1099;102864;-76
2022/05/06 04:46:36;;;;;;;35.00;13.65;;;;;;;8.30;55.40;101539.83;124632;1099;104335;-76
2022/05/06 04:49:08;;;;;;;34.63;14.10;;;;;;;8.42;54.88;101531.84;124747;1099;104242;-76
2022/05/06 04:51:42;;;;;;;30.70;12.83;;;;;;;8.53;55.20;101536.04;124755;1099;102976;-76
2022/05/06 04:54:20;;;;;;;27.83;11.43;;;;;;;8.65;55.18;101541.13;124773;1098;107084;-76
2022/05/06 04:56:53;;;;;;;29.43;12.70;;;;;;;8.74;55.02;101540.75;124697;1099;102797;-75
2022/05/06 04:59:31;;;;;;;28.70;12.43;;;;;;;8.86;54.38;101538.87;124889;1096;104236;-76
2022/05/06 05:02:03;;;;;;;29.53;12.10;;;;;;;8.99;54.91;101535.25;124861;1099;104255;-75
2022/05/06 05:04:37;;;;;;;28.27;11.88;;;;;;;9.12;54.79;101540.40;124839;1099;104623;-76
2022/05/06 05:07:15;;;;;;;29.63;11.50;;;;;;;9.25;54.39;101546.34;124903;1099;104163;-76
2022/05/06 05:10:26;;;;;;;33.13;11.90;;;;;;;9.37;54.55;101541.81;124895;1098;102813;-76
2022/05/06 05:12:59;;;;;;;29.60;12.20;;;;;;;9.48;53.93;101550.30;124876;1099;104163;-76
2022/05/06 05:15:36;;;;;;;29.57;12.10;;;;;;;9.54;54.50;101562.02;124850;1099;102964;-77
2022/05/06 05:18:11;;;;;;;27.60;11.57;;;;;;;9.64;53.78;101560.80;124894;1099;102260;-76
2022/05/06 05:20:45;;;;;;;30.27;10.90;;;;;;;9.71;54.33;101557.73;124728;1099;102984;-77
2022/05/06 05:23:20;;;;;;;24.83;9.80;;;;;;;9.81;53.69;101563.48;125160;1099;104230;-77
2022/05/06 05:25:53;;;;;;;30.83;11.20;;;;;;;9.87;53.56;101550.72;124995;1099;102851;-78
2022/05/06 05:28:26;;;;;;;25.27;10.78;;;;;;;9.98;53.80;101560.06;124865;1099;104246;-77
2022/05/06 05:30:58;;;;;;;26.73;11.20;;;;;;;10.10;53.31;101558.92;124927;1099;104689;-77
2022/05/06 05:33:30;;;;;;;22.63;9.87;;;;;;;10.25;53.74;101554.52;124817;1098;104261;-75
2022/05/06 05:36:08;;;;;;;22.77;9.33;;;;;;;10.39;53.42;101555.28;124819;1099;104239;-78
2022/05/06 05:38:41;;;;;;;21.23;8.40;;;;;;;10.51;52.70;101548.06;124896;1098;104325;-77
2022/05/06 05:41:13;;;;;;;23.53;8.07;;;;;;;10.61;52.65;101545.12;124875;1099;102652;-77
2022/05/06 05:49:45;;;;;;;23.33;8.40;;;;;;;11.03;52.23;101544.63;124330;1101;104201;-78
2022/05/06 05:52:21;;;;;;;23.70;8.17;;;;;;;11.17;52.26;101544.39;124877;1099;104606;-81
2022/05/06 05:54:55;;;;;;;24.15;8.48;;;;;;;11.26;51.62;101543.11;125026;1099;102221;-78
2022/05/06 05:57:28;;;;;;;20.53;8.77;;;;;;;11.36;51.84;101546.20;125039;1099;104392;-77
2022/05/06 06:00:02;;;;;;;23.32;8.20;;;;;;;11.47;51.83;101548.55;125074;1099;102746;-78
2022/05/06 06:02:43;;;;;;;21.70;8.47;;;;;;;11.59;51.67;101542.95;124941;1099;103267;-79
2022/05/06 06:05:23;;;;;;;18.47;8.07;;;;;;;11.74;51.52;101550.69;124565;1102;102341;-78
2022/05/06 06:08:00;;;;;;;22.73;8.27;;;;;;;11.87;51.01;101541.65;124578;1102;101949;-79
2022/05/06 06:10:40;;;;;;;20.70;7.07;;;;;;;11.97;50.40;101550.93;124469;1102;104380;-79
2022/05/06 06:13:42;;;;;;;18.45;6.90;;;;;;;12.09;50.27;101547.95;124441;1102;102590;-80
2022/05/06 06:16:22;;;;;;;20.97;6.70;;;;;;;12.19;50.74;101545.81;124516;1102;104207;-78
2022/05/06 06:18:58;;;;;;;15.53;5.13;;;;;;;12.30;50.30;101543.67;124298;1099;102948;-79
2022/05/06 06:21:46;;;;;;;13.07;4.67;;;;;;;12.44;49.29;101546.03;124438;1099;104339;-79
2022/05/06 06:24:21;;;;;;;13.25;4.60;;;;;;;12.57;48.66;101544.02;124471;1102;103599;-77
2022/05/06 06:26:58;;;;;;;13.50;4.40;;;;;;;12.71;47.55;101548.97;124416;1099;102879;-78
2022/05/06 06:29:36;;;;;;;13.47;4.07;;;;;;;12.84;47.77;101539.86;124563;1102;104169;-77
2022/05/06 06:32:19;;;;;;;11.27;4.30;;;;;;;12.97;45.68;101546.58;124423;1102;104235;-78
2022/05/06 06:34:58;;;;;;;14.07;4.00;;;;;;;13.15;46.78;101546.44;124499;1099;104160;-78
2022/05/06 06:37:38;;;;;;;15.83;5.00;;;;;;;13.27;46.68;101550.47;124798;1099;102768;-78
2022/05/06 06:40:14;;;;;;;14.45;4.75;;;;;;;13.40;46.20;101546.67;124856;1099;102404;-77
2022/05/06 06:42:47;;;;;;;15.20;4.70;;;;;;;13.58;45.96;101548.23;124914;1099;104163;-77
2022/05/06 06:45:41;;;;;;;13.70;4.33;;;;;;;13.73;44.77;101547.94;124957;1099;104331;-78
2022/05/06 06:48:39;;;;;;;8.17;3.80;;;;;;;13.90;45.02;101549.52;124875;1099;104169;-78
2022/05/06 06:51:35;;;;;;;13.27;4.00;;;;;;;14.08;45.05;101556.34;124623;1099;104239;-77
2022/05/06 06:54:10;;;;;;;11.47;4.70;;;;;;;14.22;44.09;101555.11;124909;1099;102505;-77
2022/05/06 06:56:44;;;;;;;11.83;4.00;;;;;;;14.28;43.54;101547.42;124827;1099;104239;-79
2022/05/06 06:59:34;;;;;;;9.53;3.90;;;;;;;14.41;44.18;101540.84;124910;1099;104332;-78
2022/05/06 07:02:10;;;;;;;8.55;3.85;;;;;;;14.58;42.31;101546.73;125245;1099;102530;-79
2022/05/06 07:05:02;;;;;;;;;;;;;;;;;;;;;
2022/05/06 07:14:09;;;;;;;12.03;4.40;;;;;;;15.51;41.36;101544.64;125138;1099;102717;-79
2022/05/06 07:16:41;;;;;;;9.70;4.17;;;;;;;15.69;41.43;101537.29;125097;1099;104210;-79
2022/05/06 07:19:17;;;;;;;11.33;4.57;;;;;;;15.89;40.33;101542.31;125648;1099;103184;-78
2022/05/06 07:22:12;;;;;;;11.83;4.00;;;;;;;16.01;40.08;101532.10;124404;1099;104380;-79
2022/05/06 07:28:04;;;;;;;7.77;3.33;;;;;;;16.42;39.19;101537.69;124602;1100;104334;-79
2022/05/06 07:31:08;;;;;;;9.77;4.00;;;;;;;16.57;38.08;101541.65;124697;1099;103244;-78
2022/05/06 07:33:56;;;;;;;8.80;3.70;;;;;;;16.77;37.89;101537.78;124624;1099;104309;-77
2022/05/06 07:36:29;;;;;;;7.43;3.23;;;;;;;16.89;38.52;101535.49;124394;1099;104335;-76
2022/05/06 07:39:03;;;;;;;7.50;3.40;;;;;;;17.02;38.50;101533.16;124600;1099;104252;-76
2022/05/06 07:41:35;;;;;;;;;;;;;;;17.21;36.20;101534.52;124565;1102;104198;-76
2022/05/06 07:44:30;;;;;;;10.83;3.20;;;;;;;17.31;37.30;101531.25;124614;1102;104155;-78
2022/05/06 07:47:27;;;;;;;;;;;;;;;;;;;;;
2022/05/06 07:50:25;;;;;;;9.83;3.47;;;;;;;17.66;36.61;101527.63;124915;1099;102819;-78
2022/05/06 07:53:01;;;;;;;8.70;3.40;;;;;;;17.75;31.34;101523.42;124864;1099;102255;-79
2022/05/06 07:55:52;;;;;;;9.10;3.10;;;;;;;17.91;34.52;101522.02;125024;1099;102258;-79
2022/05/06 07:58:34;;;;;;;5.70;3.10;;;;;;;18.11;34.27;101527.77;125772;1099;102264;-80
2022/05/06 08:01:18;;;;;;;7.30;2.90;;;;;;;18.19;34.85;101525.27;125942;1099;102576;-77
2022/05/06 08:06:49;;;;;;;12.40;3.50;;;;;;;18.38;34.67;101517.68;124840;1099;104150;-79
2022/05/06 08:09:28;;;;;;;7.35;3.90;;;;;;;18.53;32.92;101527.70;124617;1099;105118;-77
2022/05/06 08:12:02;;;;;;;7.03;3.33;;;;;;;18.76;33.41;101525.47;124950;1099;104264;-77
2022/05/06 08:14:35;;;;;;;6.00;3.30;;;;;;;18.83;33.70;101525.61;124898;1099;104185;-78
2022/05/06 08:17:12;;;;;;;6.97;3.50;;;;;;;18.86;33.79;101516.84;124829;1098;104623;-77
2022/05/06 08:19:45;;;;;;;9.57;3.10;;;;;;;18.97;32.18;101525.89;124896;1099;102265;-76
2022/05/06 08:22:17;;;;;;;11.13;3.40;;;;;;;19.03;33.00;101517.14;124904;1099;104646;-76
2022/05/06 08:25:00;;;;;;;7.78;3.27;;;;;;;19.16;31.90;101524.44;125047;1099;102397;-76
2022/05/06 08:31:07;;;;;;;9.10;3.20;;;;;;;19.31;31.08;101526.47;124492;1100;104323;-78
2022/05/06 08:33:55;;;;;;;10.87;3.47;;;;;;;19.34;30.65;101518.53;124416;1102;104300;-76
2022/05/06 08:36:41;;;;;;;9.27;3.17;;;;;;;19.32;31.76;101520.29;124367;1102;104224;-78
2022/05/06 08:39:37;;;;;;;7.23;3.13;;;;;;;19.37;29.71;101520.36;124390;1102;101895;-77
2022/05/06 08:43:04;;;;;;;;;;;;;;;;;;;;;
2022/05/06 08:52:14;;;;;;;6.30;3.10;;;;;;;19.58;28.88;101498.48;124361;1102;104355;-78
2022/05/06 08:55:08;;;;;;;10.03;3.57;;;;;;;19.53;28.27;101508.17;124429;1102;102664;-77
2022/05/06 08:57:52;;;;;;;7.77;3.67;;;;;;;19.42;27.06;101508.01;124385;1102;104294;-79
2022/05/06 09:00:43;;;;;;;10.27;3.60;;;;;;;19.45;27.86;101501.85;124274;1102;104632;-77
2022/05/06 09:03:17;;;;;;;11.90;4.17;;;;;;;19.53;28.88;101502.85;124943;1099;102842;-78
2022/05/06 09:05:52;;;;;;;;;;;;;;;19.53;27.17;101498.41;124613;1099;104245;-77
2022/05/06 09:08:38;;;;;;;9.87;4.47;;;;;;;19.71;26.07;101494.21;125112;1099;102162;-78
2022/05/06 09:11:11;;;;;;;10.87;4.00;;;;;;;19.87;27.53;101495.38;125233;1099;104284;-78
2022/05/06 09:13:59;;;;;;;11.37;4.47;;;;;;;19.89;27.31;101485.63;125039;1099;102573;-80
2022/05/06 09:16:46;;;;;;;7.50;3.83;;;;;;;19.87;26.89;101487.39;125074;1099;103067;-79
2022/05/06 09:19:56;;;;;;;8.20;3.93;;;;;;;20.02;26.34;101494.66;124951;1099;104207;-77
2022/05/06 09:22:36;;;;;;;9.13;4.20;;;;;;;20.29;26.91;101484.34;124980;1099;102385;-76
2022/05/06 09:25:18;;;;;;;11.35;4.05;;;;;;;20.36;26.03;101476.41;124958;1099;104204;-77
2022/05/06 09:27:59;;;;;;;9.30;3.80;;;;;;;20.47;25.85;101475.66;124933;1099;104166;-76
2022/05/06 09:30:35;;;;;;;10.00;3.40;;;;;;;20.34;24.91;101478.17;125128;1099;104159;-78
2022/05/06 09:33:32;;;;;;;6.60;3.20;;;;;;;20.11;24.82;101473.46;125056;1099;104160;-77
2022/05/06 09:36:24;;;;;;;6.37;3.40;;;;;;;20.14;25.24;101472.62;124965;1099;104215;-78
2022/05/06 09:39:08;;;;;;;9.90;3.40;;;;;;;20.06;25.12;101468.08;124935;1099;104340;-77
2022/05/06 09:41:42;;;;;;;5.63;3.30;;;;;;;20.04;24.94;101472.50;125084;1099;102802;-77
2022/05/06 09:44:22;;;;;;;6.43;3.27;;;;;;;20.01;25.75;101467.14;125047;1099;102389;-78
2022/05/06 09:47:12;;;;;;;9.03;3.53;;;;;;;20.11;24.79;101465.47;124957;1099;102139;-77
2022/05/06 09:49:49;;;;;;;8.07;3.33;;;;;;;20.22;23.57;101466.48;124999;1099;102301;-77
2022/05/06 09:52:21;;;;;;;11.03;3.90;;;;;;;20.28;24.49;101471.00;124977;1099;104198;-77
2022/05/06 09:55:05;;;;;;;7.73;3.83;;;;;;;20.29;23.61;101467.47;124891;1099;104162;-78
2022/05/06 09:57:42;;;;;;;10.50;4.20;;;;;;;20.25;23.76;101465.62;125054;1099;104163;-75
2022/05/06 10:00:17;;;;;;;8.50;4.50;;;;;;;20.27;23.66;101466.53;125072;1099;102033;-78
2022/05/06 10:02:54;;;;;;;10.67;4.80;;;;;;;20.38;23.30;101466.65;124952;1099;103597;-79
2022/05/06 10:05:33;;;;;;;10.63;5.03;;;;;;;20.45;24.36;101463.19;124945;1099;104562;-77
2022/05/06 10:08:21;;;;;;;10.90;4.23;;;;;;;20.52;24.62;101454.38;125032;1099;104335;-79
2022/05/06 10:11:12;;;;;;;11.63;4.87;;;;;;;20.55;24.12;101461.49;124588;1099;102893;-80
2022/05/06 10:13:57;;;;;;;11.50;4.90;;;;;;;20.65;24.38;101460.75;124934;1099;104387;-78
2022/05/06 10:16:40;;;;;;;12.63;5.10;;;;;;;20.76;22.50;101463.52;125027;1099;102379;-77
2022/05/06 10:19:45;;;;;;;10.55;4.87;;;;;;;20.71;22.40;101466.14;124753;1102;104265;-81
2022/05/06 10:22:20;;;;;;;9.87;5.27;;;;;;;20.78;23.44;101461.75;125078;1098;104318;-79
2022/05/06 10:25:00;;;;;;;16.25;5.42;;;;;;;20.78;23.27;101451.96;125903;1099;102270;-76
2022/05/06 10:33:24;;;;;;;14.50;5.90;;;;;;;20.67;22.81;101450.10;125231;1099;104207;-78
2022/05/06 10:36:05;;;;;;;14.45;5.75;;;;;;;20.56;22.93;101444.63;124857;1102;102551;-78
2022/05/06 10:38:56;;;;;;;15.97;6.33;;;;;;;20.48;23.66;101437.44;125079;1099;104842;-77
2022/05/06 10:41:59;;;;;;;16.93;6.40;;;;;;;20.43;23.89;101438.30;124868;1099;111708;-77
2022/05/06 10:44:53;;;;;;;12.97;5.30;;;;;;;20.43;23.98;101433.84;125107;1099;102279;-77
2022/05/06 10:47:50;;;;;;;12.55;5.62;;;;;;;20.40;21.61;101431.15;125228;1098;104204;-79
2022/05/06 10:50:50;;;;;;;13.60;6.00;;;;;;;20.46;23.12;101431.20;125130;1099;102520;-77
2022/05/06 10:53:39;;;;;;;14.90;5.83;;;;;;;20.47;22.44;101424.09;125142;1099;104166;-76
2022/05/06 10:56:12;;;;;;;17.17;6.17;;;;;;;20.50;23.06;101433.91;125046;1099;104302;-77
2022/05/06 10:59:20;;;;;;;14.43;6.20;;;;;;;20.48;23.54;101424.11;125172;1099;104286;-77
2022/05/06 11:02:16;;;;;;;14.33;6.03;;;;;;;20.63;23.59;101420.70;124921;1100;102338;-76
2022/05/06 11:05:02;;;;;;;12.70;5.80;;;;;;;20.72;23.89;101411.91;124943;1099;102374;-76
2022/05/06 11:07:46;;;;;;;12.10;6.23;;;;;;;20.79;23.99;101415.54;124882;1099;102797;-77
2022/05/06 11:10:19;;;;;;;14.73;5.97;;;;;;;20.86;22.80;101413.80;124827;1099;104191;-76
2022/05/06 11:13:02;;;;;;;12.37;5.67;;;;;;;20.94;22.98;101409.41;124948;1099;103209;-77
2022/05/06 11:15:48;;;;;;;14.65;6.20;;;;;;;20.97;23.62;101404.09;124892;1099;102320;-77
2022/05/06 11:18:44;;;;;;;16.20;6.37;;;;;;;21.02;24.05;101402.38;124915;1099;104307;-79
2022/05/06 11:21:33;;;;;;;13.40;5.57;;;;;;;21.15;23.45;101398.89;125856;1099;104208;-77
2022/05/06 11:24:31;;;;;;;12.17;5.40;;;;;;;21.27;23.31;101391.83;125699;1099;102126;-77
2022/05/06 11:30:37;;;;;;;14.83;5.70;;;;;;;21.29;22.40;101388.30;124978;1099;103295;-78
2022/05/06 11:33:27;;;;;;;15.10;5.83;;;;;;;21.20;22.90;101380.23;125097;1099;107716;-79
2022/05/06 11:36:07;;;;;;;13.83;5.47;;;;;;;21.10;22.93;101379.30;125610;1099;104315;-79
2022/05/06 11:38:48;;;;;;;12.37;5.20;;;;;;;20.96;20.82;101387.20;124469;1099;104229;-78
2022/05/06 11:41:28;;;;;;;14.17;5.60;;;;;;;20.88;22.35;101383.60;125700;1098;102261;-77
2022/05/06 11:47:26;;;;;;;11.80;5.30;;;;;;;20.93;22.14;101375.63;124900;1099;104233;-77
2022/05/06 11:50:10;;;;;;;11.40;5.10;;;;;;;20.99;20.91;101365.89;125767;1099;102361;-77
2022/05/06 11:52:58;;;;;;;9.97;5.00;;;;;;;20.93;21.38;101362.30;125913;1099;102983;-77
2022/05/06 11:55:54;;;;;;;13.37;5.27;;;;;;;20.88;21.66;101356.93;126309;1099;102287;-79
2022/05/06 11:58:50;;;;;;;11.73;5.60;;;;;;;20.90;21.18;101356.94;125214;1099;103151;-79
2022/05/06 12:01:31;;;;;;;10.83;5.00;;;;;;;20.97;22.29;101356.98;125117;1102;104178;-77
2022/05/06 12:04:14;;;;;;;10.30;5.40;;;;;;;21.09;21.65;101357.94;125861;1099;102346;-78
2022/05/06 12:06:56;;;;;;;12.30;5.40;;;;;;;21.13;21.11;101354.38;125747;1099;102403;-79
2022/05/06 12:09:47;;;;;;;11.73;5.20;;;;;;;21.18;22.25;101358.00;125830;1099;104156;-79
2022/05/06 12:12:24;;;;;;;11.07;5.37;;;;;;;20.99;21.36;101343.66;124682;1099;102293;-79
2022/05/06 12:15:15;;;;;;;11.20;5.00;;;;;;;20.97;21.22;101346.31;125261;1102;104230;-79
2022/05/06 12:18:10;;;;;;;11.20;4.93;;;;;;;20.90;21.46;101343.60;126100;1099;104272;-77
2022/05/06 12:21:27;;;;;;;15.55;5.70;;;;;;;20.85;22.19;101334.65;125849;1098;102433;-79
2022/05/06 12:24:18;;;;;;;17.27;5.40;;;;;;;20.94;21.56;101332.05;126112;1099;102158;-78
2022/05/06 12:27:39;;;;;;;12.23;5.13;;;;;;;20.96;21.79;101314.30;125729;1099;104178;-78
2022/05/06 12:30:42;;;;;;;10.48;5.20;;;;;;;21.10;21.07;101327.69;125898;1099;104057;-78
2022/05/06 12:33:18;;;;;;;12.30;5.30;;;;;;;21.12;20.92;101329.48;125916;1099;102304;-79
2022/05/06 12:36:04;;;;;;;;;;;;;;;21.07;19.68;101323.24;125361;1099;102823;-80
2022/05/06 12:39:19;;;;;;;14.17;5.60;;;;;;;21.07;20.89;101328.58;125988;1099;102131;-78
2022/05/06 12:42:29;;;;;;;10.10;4.77;;;;;;;21.08;20.52;101318.78;125298;1099;104239;-78
2022/05/06 12:45:31;;;;;;;13.47;4.83;;;;;;;21.08;21.10;101325.01;125438;1099;107780;-79
2022/05/06 12:51:12;;;;;;;11.45;5.65;;;;;;;20.97;20.39;101318.73;125620;1099;104060;-78
2022/05/06 12:53:53;;;;;;;10.13;5.00;;;;;;;20.92;20.57;101316.03;125553;1099;102384;-80
2022/05/06 12:56:29;;;;;;;11.73;5.40;;;;;;;20.86;21.05;101313.33;125806;1098;102917;-79
2022/05/06 12:59:05;;;;;;;12.17;5.27;;;;;;;20.90;21.17;101308.92;125350;1099;102092;-80
2022/05/06 13:01:39;;;;;;;11.83;5.13;;;;;;;20.92;20.71;101316.03;125365;1100;102171;-79
2022/05/06 13:04:11;;;;;;;;;;;;;;;20.95;21.15;101296.49;125344;1099;102263;-79
2022/05/06 13:06:58;;;;;;;15.10;5.30;;;;;;;21.00;21.00;101297.40;125745;1099;104194;-78